sensor_id;sensor_type;location;lat;lon;timestamp;P1;durP1;ratioP1;P2;durP2;ratioP2
74309;SDS011;62722;51.142;17.052;2023-03-21T00:00:16;34.60;;;14.60;;
74309;SDS011;62722;51.142;17.052;2023-03-21T00:03:05;35.83;;;14.20;;
74309;SDS011;62722;51.142;17.052;2023-03-21T00:05:33;35.08;;;14.73;;
74309;SDS011;62722;51.142;17.052;2023-03-21T00:08:01;38.20;;;16.67;;
74309;SDS011;62722;51.142;17.052;2023-03-21T00:10:32;33.28;;;14.90;;
74309;SDS011;62722;51.142;17.052;2023-03-21T00:13:00;35.78;;;14.40;;
74309;SDS011;62722;51.142;17.052;2023-03-21T00:15:30;38.08;;;14.90;;
74309;SDS011;62722;51.142;17.052;2023-03-21T00:17:59;38.65;;;15.45;;
74309;SDS011;62722;51.142;17.052;2023-03-21T00:20:29;37.03;;;15.35;;
74309;SDS011;62722;51.142;17.052;2023-03-21T00:22:59;34.28;;;15.32;;
74309;SDS011;62722;51.142;17.052;2023-03-21T00:25:28;33.65;;;15.05;;
74309;SDS011;62722;51.142;17.052;2023-03-21T00:27:57;44.05;;;17.65;;
74309;SDS011;62722;51.142;17.052;2023-03-21T00:30:24;38.50;;;16.15;;
74309;SDS011;62722;51.142;17.052;2023-03-21T00:32:53;41.00;;;16.88;;
74309;SDS011;62722;51.142;17.052;2023-03-21T00:35:20;41.35;;;16.25;;
74309;SDS011;62722;51.142;17.052;2023-03-21T00:37:47;41.72;;;17.08;;
74309;SDS011;62722;51.142;17.052;2023-03-21T00:40:15;41.10;;;16.88;;
74309;SDS011;62722;51.142;17.052;2023-03-21T00:42:44;45.78;;;18.10;;
74309;SDS011;62722;51.142;17.052;2023-03-21T00:45:11;42.03;;;17.88;;
74309;SDS011;62722;51.142;17.052;2023-03-21T00:47:38;64.10;;;23.48;;
74309;SDS011;62722;51.142;17.052;2023-03-21T00:50:08;58.05;;;21.90;;
74309;SDS011;62722;51.142;17.052;2023-03-21T00:52:36;52.63;;;20.25;;
74309;SDS011;62722;51.142;17.052;2023-03-21T00:55:04;41.70;;;17.33;;
74309;SDS011;62722;51.142;17.052;2023-03-21T00:57:33;38.83;;;17.13;;
74309;SDS011;62722;51.142;17.052;2023-03-21T01:00:00;38.10;;;16.35;;
74309;SDS011;62722;51.142;17.052;2023-03-21T01:02:28;38.72;;;17.48;;
74309;SDS011;62722;51.142;17.052;2023-03-21T01:04:55;42.38;;;17.65;;
74309;SDS011;62722;51.142;17.052;2023-03-21T01:07:26;39.33;;;17.35;;
74309;SDS011;62722;51.142;17.052;2023-03-21T01:09:54;38.58;;;17.45;;
74309;SDS011;62722;51.142;17.052;2023-03-21T01:12:21;38.75;;;15.95;;
74309;SDS011;62722;51.142;17.052;2023-03-21T01:14:48;38.35;;;16.05;;
74309;SDS011;62722;51.142;17.052;2023-03-21T01:17:16;38.40;;;16.35;;
74309;SDS011;62722;51.142;17.052;2023-03-21T01:19:45;38.65;;;16.77;;
74309;SDS011;62722;51.142;17.052;2023-03-21T01:22:12;37.95;;;15.68;;
74309;SDS011;62722;51.142;17.052;2023-03-21T01:24:41;33.63;;;15.68;;
74309;SDS011;62722;51.142;17.052;2023-03-21T01:27:08;40.92;;;15.95;;
74309;SDS011;62722;51.142;17.052;2023-03-21T01:29:36;40.45;;;16.10;;
74309;SDS011;62722;51.142;17.052;2023-03-21T01:32:03;36.22;;;15.25;;
74309;SDS011;62722;51.142;17.052;2023-03-21T01:34:30;34.00;;;13.50;;
74309;SDS011;62722;51.142;17.052;2023-03-21T01:36:58;29.23;;;12.45;;
74309;SDS011;62722;51.142;17.052;2023-03-21T01:39:25;29.98;;;12.98;;
74309;SDS011;62722;51.142;17.052;2023-03-21T01:41:54;27.20;;;12.77;;
74309;SDS011;62722;51.142;17.052;2023-03-21T01:44:22;28.50;;;12.15;;
74309;SDS011;62722;51.142;17.052;2023-03-21T01:46:50;26.38;;;11.48;;
74309;SDS011;62722;51.142;17.052;2023-03-21T01:49:21;28.50;;;11.98;;
74309;SDS011;62722;51.142;17.052;2023-03-21T01:51:53;28.83;;;12.68;;
74309;SDS011;62722;51.142;17.052;2023-03-21T01:54:25;33.35;;;13.60;;
74309;SDS011;62722;51.142;17.052;2023-03-21T01:56:57;26.42;;;11.52;;
74309;SDS011;62722;51.142;17.052;2023-03-21T01:59:30;28.98;;;12.18;;
74309;SDS011;62722;51.142;17.052;2023-03-21T02:02:03;30.42;;;12.52;;
74309;SDS011;62722;51.142;17.052;2023-03-21T02:04:34;27.92;;;13.00;;
74309;SDS011;62722;51.142;17.052;2023-03-21T02:07:04;28.52;;;11.90;;
74309;SDS011;62722;51.142;17.052;2023-03-21T02:09:35;31.63;;;13.75;;
74309;SDS011;62722;51.142;17.052;2023-03-21T02:12:07;32.17;;;12.77;;
74309;SDS011;62722;51.142;17.052;2023-03-21T02:14:35;28.05;;;12.98;;
74309;SDS011;62722;51.142;17.052;2023-03-21T02:17:05;27.50;;;12.02;;
74309;SDS011;62722;51.142;17.052;2023-03-21T02:25:47;29.50;;;12.02;;
74309;SDS011;62722;51.142;17.052;2023-03-21T02:28:44;29.95;;;12.13;;
74309;SDS011;62722;51.142;17.052;2023-03-21T02:31:17;28.42;;;11.75;;
74309;SDS011;62722;51.142;17.052;2023-03-21T02:37:03;32.00;;;13.07;;
74309;SDS011;62722;51.142;17.052;2023-03-21T02:39:39;32.42;;;13.10;;
74309;SDS011;62722;51.142;17.052;2023-03-21T02:42:15;27.98;;;12.40;;
74309;SDS011;62722;51.142;17.052;2023-03-21T02:44:48;29.15;;;12.70;;
74309;SDS011;62722;51.142;17.052;2023-03-21T02:47:25;31.45;;;13.68;;
74309;SDS011;62722;51.142;17.052;2023-03-21T02:49:57;30.00;;;13.20;;
74309;SDS011;62722;51.142;17.052;2023-03-21T02:52:32;29.40;;;12.32;;
74309;SDS011;62722;51.142;17.052;2023-03-21T02:55:03;36.40;;;14.27;;
74309;SDS011;62722;51.142;17.052;2023-03-21T02:57:38;31.52;;;12.90;;
74309;SDS011;62722;51.142;17.052;2023-03-21T03:00:09;29.90;;;12.80;;
74309;SDS011;62722;51.142;17.052;2023-03-21T03:02:41;30.60;;;12.32;;
74309;SDS011;62722;51.142;17.052;2023-03-21T03:05:15;37.53;;;16.08;;
74309;SDS011;62722;51.142;17.052;2023-03-21T03:07:49;33.95;;;14.00;;
74309;SDS011;62722;51.142;17.052;2023-03-21T03:10:39;31.85;;;13.50;;
74309;SDS011;62722;51.142;17.052;2023-03-21T03:13:19;28.33;;;12.20;;
74309;SDS011;62722;51.142;17.052;2023-03-21T03:15:57;32.35;;;13.65;;
74309;SDS011;62722;51.142;17.052;2023-03-21T03:18:36;35.00;;;14.38;;
74309;SDS011;62722;51.142;17.052;2023-03-21T03:21:09;32.50;;;12.38;;
74309;SDS011;62722;51.142;17.052;2023-03-21T03:23:44;35.17;;;13.63;;
74309;SDS011;62722;51.142;17.052;2023-03-21T03:26:16;32.78;;;13.88;;
74309;SDS011;62722;51.142;17.052;2023-03-21T03:28:47;33.03;;;14.13;;
74309;SDS011;62722;51.142;17.052;2023-03-21T03:31:20;31.55;;;13.63;;
74309;SDS011;62722;51.142;17.052;2023-03-21T03:33:53;35.67;;;14.75;;
74309;SDS011;62722;51.142;17.052;2023-03-21T03:36:24;33.53;;;13.82;;
74309;SDS011;62722;51.142;17.052;2023-03-21T03:38:57;34.33;;;14.50;;
74309;SDS011;62722;51.142;17.052;2023-03-21T03:41:29;36.03;;;13.60;;
74309;SDS011;62722;51.142;17.052;2023-03-21T03:44:01;36.45;;;15.18;;
74309;SDS011;62722;51.142;17.052;2023-03-21T03:46:29;39.08;;;15.15;;
74309;SDS011;62722;51.142;17.052;2023-03-21T03:49:03;35.47;;;13.65;;
74309;SDS011;62722;51.142;17.052;2023-03-21T03:51:34;37.67;;;15.15;;
74309;SDS011;62722;51.142;17.052;2023-03-21T03:54:11;35.35;;;13.95;;
74309;SDS011;62722;51.142;17.052;2023-03-21T03:56:42;40.53;;;16.17;;
74309;SDS011;62722;51.142;17.052;2023-03-21T03:59:09;35.72;;;14.52;;
74309;SDS011;62722;51.142;17.052;2023-03-21T04:01:37;40.45;;;15.40;;
74309;SDS011;62722;51.142;17.052;2023-03-21T04:04:05;36.83;;;15.02;;
74309;SDS011;62722;51.142;17.052;2023-03-21T04:06:33;37.13;;;14.70;;
74309;SDS011;62722;51.142;17.052;2023-03-21T04:09:00;37.33;;;15.13;;
74309;SDS011;62722;51.142;17.052;2023-03-21T04:11:31;38.47;;;13.98;;
74309;SDS011;62722;51.142;17.052;2023-03-21T04:13:58;34.80;;;14.38;;
74309;SDS011;62722;51.142;17.052;2023-03-21T04:16:25;37.58;;;15.13;;
74309;SDS011;62722;51.142;17.052;2023-03-21T04:18:55;36.28;;;15.77;;
74309;SDS011;62722;51.142;17.052;2023-03-21T04:21:23;35.30;;;13.90;;
74309;SDS011;62722;51.142;17.052;2023-03-21T04:23:52;36.45;;;14.55;;
74309;SDS011;62722;51.142;17.052;2023-03-21T04:26:20;38.65;;;14.70;;
74309;SDS011;62722;51.142;17.052;2023-03-21T04:28:50;33.70;;;14.35;;
74309;SDS011;62722;51.142;17.052;2023-03-21T04:31:17;35.95;;;14.13;;
74309;SDS011;62722;51.142;17.052;2023-03-21T04:33:45;34.83;;;13.45;;
74309;SDS011;62722;51.142;17.052;2023-03-21T04:36:14;35.97;;;14.57;;
74309;SDS011;62722;51.142;17.052;2023-03-21T04:38:51;36.20;;;14.27;;
74309;SDS011;62722;51.142;17.052;2023-03-21T04:41:19;34.03;;;13.88;;
74309;SDS011;62722;51.142;17.052;2023-03-21T04:43:46;37.65;;;14.18;;
74309;SDS011;62722;51.142;17.052;2023-03-21T04:46:15;38.72;;;15.25;;
74309;SDS011;62722;51.142;17.052;2023-03-21T04:48:42;37.45;;;15.40;;
74309;SDS011;62722;51.142;17.052;2023-03-21T04:51:10;35.40;;;14.55;;
74309;SDS011;62722;51.142;17.052;2023-03-21T04:53:37;36.75;;;14.10;;
74309;SDS011;62722;51.142;17.052;2023-03-21T04:56:07;43.03;;;15.00;;
74309;SDS011;62722;51.142;17.052;2023-03-21T04:58:35;34.83;;;14.65;;
74309;SDS011;62722;51.142;17.052;2023-03-21T05:01:05;32.72;;;14.07;;
74309;SDS011;62722;51.142;17.052;2023-03-21T05:03:34;37.53;;;14.95;;
74309;SDS011;62722;51.142;17.052;2023-03-21T05:06:05;36.55;;;14.10;;
74309;SDS011;62722;51.142;17.052;2023-03-21T05:08:34;39.97;;;14.48;;
74309;SDS011;62722;51.142;17.052;2023-03-21T05:11:01;37.47;;;15.05;;
74309;SDS011;62722;51.142;17.052;2023-03-21T05:13:29;33.75;;;14.57;;
74309;SDS011;62722;51.142;17.052;2023-03-21T05:15:57;36.03;;;14.95;;
74309;SDS011;62722;51.142;17.052;2023-03-21T05:18:24;40.17;;;14.20;;
74309;SDS011;62722;51.142;17.052;2023-03-21T05:20:53;37.70;;;14.05;;
74309;SDS011;62722;51.142;17.052;2023-03-21T05:23:20;42.25;;;15.50;;
74309;SDS011;62722;51.142;17.052;2023-03-21T05:25:48;41.25;;;16.42;;
74309;SDS011;62722;51.142;17.052;2023-03-21T05:28:16;34.63;;;14.18;;
74309;SDS011;62722;51.142;17.052;2023-03-21T05:30:48;39.63;;;15.38;;
74309;SDS011;62722;51.142;17.052;2023-03-21T05:33:15;38.13;;;14.77;;
74309;SDS011;62722;51.142;17.052;2023-03-21T05:35:43;40.85;;;14.25;;
74309;SDS011;62722;51.142;17.052;2023-03-21T05:38:11;39.95;;;14.88;;
74309;SDS011;62722;51.142;17.052;2023-03-21T05:40:39;38.65;;;14.65;;
74309;SDS011;62722;51.142;17.052;2023-03-21T05:43:06;35.53;;;14.20;;
74309;SDS011;62722;51.142;17.052;2023-03-21T05:45:33;36.25;;;14.82;;
74309;SDS011;62722;51.142;17.052;2023-03-21T05:48:00;41.08;;;15.30;;
74309;SDS011;62722;51.142;17.052;2023-03-21T05:50:28;34.83;;;14.25;;
74309;SDS011;62722;51.142;17.052;2023-03-21T05:52:55;36.47;;;14.82;;
74309;SDS011;62722;51.142;17.052;2023-03-21T05:55:24;39.70;;;16.33;;
74309;SDS011;62722;51.142;17.052;2023-03-21T05:57:51;37.45;;;14.45;;
74309;SDS011;62722;51.142;17.052;2023-03-21T06:00:19;42.40;;;14.95;;
74309;SDS011;62722;51.142;17.052;2023-03-21T06:02:47;42.78;;;16.10;;
74309;SDS011;62722;51.142;17.052;2023-03-21T06:05:15;37.63;;;14.35;;
74309;SDS011;62722;51.142;17.052;2023-03-21T06:07:42;40.78;;;15.13;;
74309;SDS011;62722;51.142;17.052;2023-03-21T06:10:10;36.05;;;13.60;;
74309;SDS011;62722;51.142;17.052;2023-03-21T06:12:38;39.40;;;15.27;;
74309;SDS011;62722;51.142;17.052;2023-03-21T06:15:08;41.15;;;15.90;;
74309;SDS011;62722;51.142;17.052;2023-03-21T06:17:35;41.95;;;16.17;;
74309;SDS011;62722;51.142;17.052;2023-03-21T06:20:04;38.85;;;15.23;;
74309;SDS011;62722;51.142;17.052;2023-03-21T06:22:33;38.20;;;15.25;;
74309;SDS011;62722;51.142;17.052;2023-03-21T06:25:01;39.92;;;16.13;;
74309;SDS011;62722;51.142;17.052;2023-03-21T06:27:28;38.35;;;15.95;;
74309;SDS011;62722;51.142;17.052;2023-03-21T06:29:57;44.28;;;15.50;;
74309;SDS011;62722;51.142;17.052;2023-03-21T06:32:25;36.38;;;14.65;;
74309;SDS011;62722;51.142;17.052;2023-03-21T06:34:52;40.08;;;15.20;;
74309;SDS011;62722;51.142;17.052;2023-03-21T06:37:20;38.42;;;14.88;;
74309;SDS011;62722;51.142;17.052;2023-03-21T06:39:47;38.80;;;15.30;;
74309;SDS011;62722;51.142;17.052;2023-03-21T06:42:14;39.63;;;15.70;;
74309;SDS011;62722;51.142;17.052;2023-03-21T06:44:42;38.92;;;15.40;;
74309;SDS011;62722;51.142;17.052;2023-03-21T06:47:10;41.75;;;15.77;;
74309;SDS011;62722;51.142;17.052;2023-03-21T06:49:38;38.95;;;14.20;;
74309;SDS011;62722;51.142;17.052;2023-03-21T06:52:05;36.70;;;16.10;;
74309;SDS011;62722;51.142;17.052;2023-03-21T06:54:33;35.83;;;14.32;;
74309;SDS011;62722;51.142;17.052;2023-03-21T06:57:00;39.10;;;15.45;;
74309;SDS011;62722;51.142;17.052;2023-03-21T06:59:28;37.47;;;15.00;;
74309;SDS011;62722;51.142;17.052;2023-03-21T07:01:55;36.17;;;14.50;;
74309;SDS011;62722;51.142;17.052;2023-03-21T07:04:24;36.70;;;14.43;;
74309;SDS011;62722;51.142;17.052;2023-03-21T07:06:52;31.05;;;13.35;;
74309;SDS011;62722;51.142;17.052;2023-03-21T07:09:20;32.88;;;14.05;;
74309;SDS011;62722;51.142;17.052;2023-03-21T07:11:49;34.13;;;13.50;;
74309;SDS011;62722;51.142;17.052;2023-03-21T07:14:18;31.33;;;12.05;;
74309;SDS011;62722;51.142;17.052;2023-03-21T07:16:45;33.50;;;12.73;;
74309;SDS011;62722;51.142;17.052;2023-03-21T07:19:13;31.42;;;13.27;;
74309;SDS011;62722;51.142;17.052;2023-03-21T07:21:41;30.58;;;13.18;;
74309;SDS011;62722;51.142;17.052;2023-03-21T07:24:09;32.22;;;12.40;;
74309;SDS011;62722;51.142;17.052;2023-03-21T07:26:36;29.92;;;12.30;;
74309;SDS011;62722;51.142;17.052;2023-03-21T07:29:03;28.48;;;11.73;;
74309;SDS011;62722;51.142;17.052;2023-03-21T07:31:31;34.28;;;12.40;;
74309;SDS011;62722;51.142;17.052;2023-03-21T07:33:58;29.55;;;12.55;;
74309;SDS011;62722;51.142;17.052;2023-03-21T07:36:25;27.40;;;12.77;;
74309;SDS011;62722;51.142;17.052;2023-03-21T07:38:54;32.92;;;12.13;;
74309;SDS011;62722;51.142;17.052;2023-03-21T07:41:21;33.10;;;12.98;;
74309;SDS011;62722;51.142;17.052;2023-03-21T07:43:49;31.20;;;11.82;;
74309;SDS011;62722;51.142;17.052;2023-03-21T07:46:16;29.83;;;11.55;;
74309;SDS011;62722;51.142;17.052;2023-03-21T07:48:44;30.42;;;11.57;;
74309;SDS011;62722;51.142;17.052;2023-03-21T07:51:11;27.95;;;11.85;;
74309;SDS011;62722;51.142;17.052;2023-03-21T07:53:38;23.48;;;11.25;;
74309;SDS011;62722;51.142;17.052;2023-03-21T07:56:09;26.30;;;10.35;;
74309;SDS011;62722;51.142;17.052;2023-03-21T07:58:37;26.25;;;10.70;;
74309;SDS011;62722;51.142;17.052;2023-03-21T08:01:05;25.77;;;11.73;;
74309;SDS011;62722;51.142;17.052;2023-03-21T08:03:32;28.17;;;11.70;;
74309;SDS011;62722;51.142;17.052;2023-03-21T08:06:00;24.45;;;11.18;;
74309;SDS011;62722;51.142;17.052;2023-03-21T08:08:27;27.67;;;11.23;;
74309;SDS011;62722;51.142;17.052;2023-03-21T08:10:55;24.52;;;11.50;;
74309;SDS011;62722;51.142;17.052;2023-03-21T08:13:24;24.27;;;10.75;;
74309;SDS011;62722;51.142;17.052;2023-03-21T08:15:52;20.65;;;9.00;;
74309;SDS011;62722;51.142;17.052;2023-03-21T08:18:19;21.85;;;9.80;;
74309;SDS011;62722;51.142;17.052;2023-03-21T08:20:49;19.23;;;8.73;;
74309;SDS011;62722;51.142;17.052;2023-03-21T08:23:18;24.80;;;10.38;;
74309;SDS011;62722;51.142;17.052;2023-03-21T08:25:45;18.83;;;9.25;;
74309;SDS011;62722;51.142;17.052;2023-03-21T08:28:16;21.75;;;9.65;;
74309;SDS011;62722;51.142;17.052;2023-03-21T08:30:45;23.25;;;10.50;;
74309;SDS011;62722;51.142;17.052;2023-03-21T08:33:13;25.05;;;10.15;;
74309;SDS011;62722;51.142;17.052;2023-03-21T08:35:41;20.80;;;10.05;;
74309;SDS011;62722;51.142;17.052;2023-03-21T08:38:09;20.77;;;9.70;;
74309;SDS011;62722;51.142;17.052;2023-03-21T08:40:36;19.05;;;9.00;;
74309;SDS011;62722;51.142;17.052;2023-03-21T08:43:04;24.98;;;10.73;;
74309;SDS011;62722;51.142;17.052;2023-03-21T08:45:31;20.90;;;9.65;;
74309;SDS011;62722;51.142;17.052;2023-03-21T08:48:00;24.75;;;10.32;;
74309;SDS011;62722;51.142;17.052;2023-03-21T08:50:27;26.27;;;10.75;;
74309;SDS011;62722;51.142;17.052;2023-03-21T08:52:56;22.52;;;9.55;;
74309;SDS011;62722;51.142;17.052;2023-03-21T08:55:23;25.08;;;10.07;;
74309;SDS011;62722;51.142;17.052;2023-03-21T08:57:51;24.98;;;11.25;;
74309;SDS011;62722;51.142;17.052;2023-03-21T09:00:18;24.33;;;9.43;;
74309;SDS011;62722;51.142;17.052;2023-03-21T09:02:47;25.58;;;10.38;;
74309;SDS011;62722;51.142;17.052;2023-03-21T09:05:18;25.20;;;11.38;;
74309;SDS011;62722;51.142;17.052;2023-03-21T09:07:47;24.33;;;11.90;;
74309;SDS011;62722;51.142;17.052;2023-03-21T09:10:16;22.70;;;10.27;;
74309;SDS011;62722;51.142;17.052;2023-03-21T09:12:45;26.80;;;11.50;;
74309;SDS011;62722;51.142;17.052;2023-03-21T09:15:12;22.65;;;11.20;;
74309;SDS011;62722;51.142;17.052;2023-03-21T09:17:46;25.95;;;11.05;;
74309;SDS011;62722;51.142;17.052;2023-03-21T09:20:19;22.30;;;11.43;;
74309;SDS011;62722;51.142;17.052;2023-03-21T09:25:22;23.90;;;11.38;;
74309;SDS011;62722;51.142;17.052;2023-03-21T09:27:50;23.90;;;10.93;;
74309;SDS011;62722;51.142;17.052;2023-03-21T09:30:19;22.65;;;10.50;;
74309;SDS011;62722;51.142;17.052;2023-03-21T09:32:49;24.90;;;10.95;;
74309;SDS011;62722;51.142;17.052;2023-03-21T09:35:28;24.45;;;10.27;;
74309;SDS011;62722;51.142;17.052;2023-03-21T09:37:56;24.15;;;10.90;;
74309;SDS011;62722;51.142;17.052;2023-03-21T09:40:28;23.02;;;10.48;;
74309;SDS011;62722;51.142;17.052;2023-03-21T09:43:07;21.65;;;10.57;;
74309;SDS011;62722;51.142;17.052;2023-03-21T09:45:49;26.00;;;11.27;;
74309;SDS011;62722;51.142;17.052;2023-03-21T09:48:26;23.17;;;10.23;;
74309;SDS011;62722;51.142;17.052;2023-03-21T09:51:02;25.17;;;10.57;;
74309;SDS011;62722;51.142;17.052;2023-03-21T09:53:32;24.48;;;11.13;;
74309;SDS011;62722;51.142;17.052;2023-03-21T09:56:04;22.20;;;10.85;;
74309;SDS011;62722;51.142;17.052;2023-03-21T09:58:36;24.00;;;11.05;;
74309;SDS011;62722;51.142;17.052;2023-03-21T10:01:11;25.02;;;11.57;;
74309;SDS011;62722;51.142;17.052;2023-03-21T10:03:46;28.63;;;12.05;;
74309;SDS011;62722;51.142;17.052;2023-03-21T10:06:16;21.45;;;10.85;;
74309;SDS011;62722;51.142;17.052;2023-03-21T10:08:44;28.75;;;12.45;;
74309;SDS011;62722;51.142;17.052;2023-03-21T10:11:14;25.00;;;10.75;;
74309;SDS011;62722;51.142;17.052;2023-03-21T10:13:47;27.17;;;11.23;;
74309;SDS011;62722;51.142;17.052;2023-03-21T10:16:20;25.10;;;13.13;;
74309;SDS011;62722;51.142;17.052;2023-03-21T10:18:53;29.48;;;13.13;;
74309;SDS011;62722;51.142;17.052;2023-03-21T10:21:23;24.65;;;11.35;;
74309;SDS011;62722;51.142;17.052;2023-03-21T10:23:53;25.05;;;12.00;;
74309;SDS011;62722;51.142;17.052;2023-03-21T10:26:23;23.80;;;11.60;;
74309;SDS011;62722;51.142;17.052;2023-03-21T10:28:53;27.05;;;12.57;;
74309;SDS011;62722;51.142;17.052;2023-03-21T10:31:23;30.08;;;13.10;;
74309;SDS011;62722;51.142;17.052;2023-03-21T10:33:55;25.30;;;12.68;;
74309;SDS011;62722;51.142;17.052;2023-03-21T10:36:28;26.05;;;12.77;;
74309;SDS011;62722;51.142;17.052;2023-03-21T10:38:59;29.58;;;13.32;;
74309;SDS011;62722;51.142;17.052;2023-03-21T10:41:28;26.55;;;12.02;;
74309;SDS011;62722;51.142;17.052;2023-03-21T10:44:03;25.35;;;12.40;;
74309;SDS011;62722;51.142;17.052;2023-03-21T10:46:32;27.58;;;12.15;;
74309;SDS011;62722;51.142;17.052;2023-03-21T10:49:00;25.38;;;11.93;;
74309;SDS011;62722;51.142;17.052;2023-03-21T10:51:29;24.15;;;11.88;;
74309;SDS011;62722;51.142;17.052;2023-03-21T10:54:00;28.83;;;13.15;;
74309;SDS011;62722;51.142;17.052;2023-03-21T10:56:33;25.35;;;11.55;;
74309;SDS011;62722;51.142;17.052;2023-03-21T10:59:03;29.10;;;13.13;;
74309;SDS011;62722;51.142;17.052;2023-03-21T11:01:36;24.73;;;11.60;;
74309;SDS011;62722;51.142;17.052;2023-03-21T11:04:07;23.55;;;11.10;;
74309;SDS011;62722;51.142;17.052;2023-03-21T11:06:41;26.77;;;12.23;;
74309;SDS011;62722;51.142;17.052;2023-03-21T11:09:13;24.67;;;12.82;;
74309;SDS011;62722;51.142;17.052;2023-03-21T11:11:48;27.40;;;12.85;;
74309;SDS011;62722;51.142;17.052;2023-03-21T11:14:25;26.90;;;12.98;;
74309;SDS011;62722;51.142;17.052;2023-03-21T11:17:06;26.10;;;13.57;;
74309;SDS011;62722;51.142;17.052;2023-03-21T11:19:46;27.00;;;13.10;;
74309;SDS011;62722;51.142;17.052;2023-03-21T11:22:16;25.38;;;11.82;;
74309;SDS011;62722;51.142;17.052;2023-03-21T11:24:47;25.95;;;12.48;;
74309;SDS011;62722;51.142;17.052;2023-03-21T11:27:16;28.17;;;13.55;;
74309;SDS011;62722;51.142;17.052;2023-03-21T11:29:45;26.35;;;13.60;;
74309;SDS011;62722;51.142;17.052;2023-03-21T11:32:19;29.27;;;14.43;;
74309;SDS011;62722;51.142;17.052;2023-03-21T11:34:49;31.60;;;13.80;;
74309;SDS011;62722;51.142;17.052;2023-03-21T11:37:24;30.73;;;13.90;;
74309;SDS011;62722;51.142;17.052;2023-03-21T11:39:53;30.95;;;14.48;;
74309;SDS011;62722;51.142;17.052;2023-03-21T11:42:25;28.10;;;13.77;;
74309;SDS011;62722;51.142;17.052;2023-03-21T11:45:03;28.83;;;13.02;;
74309;SDS011;62722;51.142;17.052;2023-03-21T11:47:36;28.55;;;13.63;;
74309;SDS011;62722;51.142;17.052;2023-03-21T11:50:09;23.75;;;13.13;;
74309;SDS011;62722;51.142;17.052;2023-03-21T11:52:48;31.45;;;15.05;;
74309;SDS011;62722;51.142;17.052;2023-03-21T11:55:30;26.55;;;13.80;;
74309;SDS011;62722;51.142;17.052;2023-03-21T11:58:04;31.52;;;14.68;;
74309;SDS011;62722;51.142;17.052;2023-03-21T12:00:41;32.17;;;15.00;;
74309;SDS011;62722;51.142;17.052;2023-03-21T12:06:13;32.72;;;15.10;;
74309;SDS011;62722;51.142;17.052;2023-03-21T12:08:53;32.55;;;15.45;;
74309;SDS011;62722;51.142;17.052;2023-03-21T12:11:32;31.17;;;15.35;;
74309;SDS011;62722;51.142;17.052;2023-03-21T12:14:07;32.00;;;15.43;;
74309;SDS011;62722;51.142;17.052;2023-03-21T12:16:48;28.98;;;13.90;;
74309;SDS011;62722;51.142;17.052;2023-03-21T12:19:39;27.15;;;13.88;;
74309;SDS011;62722;51.142;17.052;2023-03-21T12:22:21;33.25;;;15.43;;
74309;SDS011;62722;51.142;17.052;2023-03-21T12:24:58;28.00;;;14.40;;
74309;SDS011;62722;51.142;17.052;2023-03-21T12:27:35;29.88;;;15.05;;
74309;SDS011;62722;51.142;17.052;2023-03-21T12:30:23;30.20;;;13.40;;
74309;SDS011;62722;51.142;17.052;2023-03-21T12:33:07;30.38;;;14.20;;
74309;SDS011;62722;51.142;17.052;2023-03-21T12:35:48;27.58;;;13.55;;
74309;SDS011;62722;51.142;17.052;2023-03-21T12:38:27;27.55;;;13.65;;
74309;SDS011;62722;51.142;17.052;2023-03-21T12:41:09;25.52;;;11.63;;
74309;SDS011;62722;51.142;17.052;2023-03-21T12:43:46;25.88;;;11.98;;
74309;SDS011;62722;51.142;17.052;2023-03-21T12:46:20;26.20;;;13.68;;
74309;SDS011;62722;51.142;17.052;2023-03-21T12:48:54;25.65;;;13.25;;
74309;SDS011;62722;51.142;17.052;2023-03-21T12:51:27;23.42;;;12.35;;
74309;SDS011;62722;51.142;17.052;2023-03-21T12:54:06;24.75;;;12.68;;
74309;SDS011;62722;51.142;17.052;2023-03-21T12:56:46;26.17;;;12.50;;
74309;SDS011;62722;51.142;17.052;2023-03-21T12:59:20;25.92;;;12.50;;
74309;SDS011;62722;51.142;17.052;2023-03-21T13:01:54;29.33;;;12.63;;
74309;SDS011;62722;51.142;17.052;2023-03-21T13:07:18;24.30;;;11.73;;
74309;SDS011;62722;51.142;17.052;2023-03-21T13:09:50;24.25;;;12.52;;
74309;SDS011;62722;51.142;17.052;2023-03-21T13:12:34;25.77;;;12.10;;
74309;SDS011;62722;51.142;17.052;2023-03-21T13:15:15;25.73;;;12.45;;
74309;SDS011;62722;51.142;17.052;2023-03-21T13:17:55;25.58;;;11.93;;
74309;SDS011;62722;51.142;17.052;2023-03-21T13:20:29;22.20;;;11.73;;
74309;SDS011;62722;51.142;17.052;2023-03-21T13:23:05;24.17;;;11.55;;
74309;SDS011;62722;51.142;17.052;2023-03-21T13:25:37;22.88;;;11.82;;
74309;SDS011;62722;51.142;17.052;2023-03-21T13:28:15;24.45;;;12.68;;
74309;SDS011;62722;51.142;17.052;2023-03-21T13:30:45;23.73;;;12.50;;
74309;SDS011;62722;51.142;17.052;2023-03-21T13:33:14;25.30;;;11.60;;
74309;SDS011;62722;51.142;17.052;2023-03-21T13:35:53;24.92;;;12.90;;
74309;SDS011;62722;51.142;17.052;2023-03-21T13:38:25;26.27;;;12.23;;
74309;SDS011;62722;51.142;17.052;2023-03-21T13:40:56;24.77;;;11.75;;
74309;SDS011;62722;51.142;17.052;2023-03-21T13:43:41;22.48;;;12.07;;
74309;SDS011;62722;51.142;17.052;2023-03-21T13:46:11;24.73;;;12.35;;
74309;SDS011;62722;51.142;17.052;2023-03-21T13:48:41;24.90;;;12.40;;
74309;SDS011;62722;51.142;17.052;2023-03-21T13:51:10;25.77;;;11.55;;
74309;SDS011;62722;51.142;17.052;2023-03-21T13:53:38;23.08;;;11.73;;
74309;SDS011;62722;51.142;17.052;2023-03-21T13:58:53;23.23;;;11.82;;
74309;SDS011;62722;51.142;17.052;2023-03-21T14:01:27;23.77;;;11.90;;
74309;SDS011;62722;51.142;17.052;2023-03-21T14:03:59;25.42;;;11.52;;
74309;SDS011;62722;51.142;17.052;2023-03-21T14:06:31;23.63;;;11.50;;
74309;SDS011;62722;51.142;17.052;2023-03-21T14:09:04;21.60;;;10.02;;
74309;SDS011;62722;51.142;17.052;2023-03-21T14:11:32;19.67;;;9.93;;
74309;SDS011;62722;51.142;17.052;2023-03-21T14:14:03;21.25;;;10.77;;
74309;SDS011;62722;51.142;17.052;2023-03-21T14:16:31;22.02;;;11.10;;
74309;SDS011;62722;51.142;17.052;2023-03-21T14:19:00;21.38;;;10.40;;
74309;SDS011;62722;51.142;17.052;2023-03-21T14:21:30;20.98;;;9.98;;
74309;SDS011;62722;51.142;17.052;2023-03-21T14:24:00;23.52;;;11.35;;
74309;SDS011;62722;51.142;17.052;2023-03-21T14:26:31;24.85;;;12.43;;
74309;SDS011;62722;51.142;17.052;2023-03-21T14:29:00;24.10;;;11.55;;
74309;SDS011;62722;51.142;17.052;2023-03-21T14:31:30;25.45;;;12.10;;
74309;SDS011;62722;51.142;17.052;2023-03-21T14:33:58;24.80;;;11.20;;
74309;SDS011;62722;51.142;17.052;2023-03-21T14:36:29;21.13;;;10.70;;
74309;SDS011;62722;51.142;17.052;2023-03-21T14:39:03;24.50;;;11.68;;
74309;SDS011;62722;51.142;17.052;2023-03-21T14:41:33;22.33;;;10.95;;
74309;SDS011;62722;51.142;17.052;2023-03-21T14:44:15;21.98;;;10.98;;
74309;SDS011;62722;51.142;17.052;2023-03-21T14:46:49;21.73;;;10.02;;
74309;SDS011;62722;51.142;17.052;2023-03-21T14:49:18;21.50;;;10.80;;